sensor_id;sensor_type;location;lat;lon;timestamp;P1;durP1;ratioP1;P2;durP2;ratioP2
16612;SDS011;8419;52.358;9.752;2023-09-08T00:00:07;4.70;;;3.83;;
16612;SDS011;8419;52.358;9.752;2023-09-08T00:02:53;5.50;;;4.15;;
16612;SDS011;8419;52.358;9.752;2023-09-08T00:05:39;5.65;;;4.30;;
16612;SDS011;8419;52.358;9.752;2023-09-08T00:08:25;7.28;;;4.30;;
16612;SDS011;8419;52.358;9.752;2023-09-08T00:11:10;6.55;;;3.83;;
16612;SDS011;8419;52.358;9.752;2023-09-08T00:13:55;4.50;;;3.53;;
16612;SDS011;8419;52.358;9.752;2023-09-08T00:16:41;5.53;;;4.30;;
16612;SDS011;8419;52.358;9.752;2023-09-08T00:19:27;7.03;;;4.20;;
16612;SDS011;8419;52.358;9.752;2023-09-08T00:22:13;5.62;;;4.03;;
16612;SDS011;8419;52.358;9.752;2023-09-08T00:24:58;5.65;;;4.15;;
16612;SDS011;8419;52.358;9.752;2023-09-08T00:27:44;5.20;;;4.03;;
16612;SDS011;8419;52.358;9.752;2023-09-08T00:30:30;5.93;;;4.68;;
16612;SDS011;8419;52.358;9.752;2023-09-08T00:33:16;5.20;;;3.50;;
16612;SDS011;8419;52.358;9.752;2023-09-08T00:36:01;5.28;;;3.97;;
16612;SDS011;8419;52.358;9.752;2023-09-08T00:38:47;10.30;;;4.97;;
16612;SDS011;8419;52.358;9.752;2023-09-08T00:41:33;7.30;;;4.35;;
16612;SDS011;8419;52.358;9.752;2023-09-08T00:44:18;7.40;;;3.87;;
16612;SDS011;8419;52.358;9.752;2023-09-08T00:47:04;4.93;;;4.00;;
16612;SDS011;8419;52.358;9.752;2023-09-08T00:49:50;4.97;;;3.95;;
16612;SDS011;8419;52.358;9.752;2023-09-08T00:52:35;4.65;;;4.18;;
16612;SDS011;8419;52.358;9.752;2023-09-08T00:55:21;7.78;;;4.45;;
16612;SDS011;8419;52.358;9.752;2023-09-08T00:58:07;4.97;;;3.72;;
16612;SDS011;8419;52.358;9.752;2023-09-08T01:00:53;5.93;;;4.43;;
16612;SDS011;8419;52.358;9.752;2023-09-08T01:03:42;5.40;;;4.32;;
16612;SDS011;8419;52.358;9.752;2023-09-08T01:06:28;5.72;;;4.35;;
16612;SDS011;8419;52.358;9.752;2023-09-08T01:09:14;5.87;;;4.35;;
16612;SDS011;8419;52.358;9.752;2023-09-08T01:12:00;9.27;;;4.15;;
16612;SDS011;8419;52.358;9.752;2023-09-08T01:14:48;4.68;;;3.83;;
16612;SDS011;8419;52.358;9.752;2023-09-08T01:17:33;5.97;;;4.22;;
16612;SDS011;8419;52.358;9.752;2023-09-08T01:20:20;4.93;;;4.00;;
16612;SDS011;8419;52.358;9.752;2023-09-08T01:23:13;6.07;;;5.20;;
16612;SDS011;8419;52.358;9.752;2023-09-08T01:26:07;5.22;;;3.80;;
16612;SDS011;8419;52.358;9.752;2023-09-08T01:28:54;5.90;;;4.37;;
16612;SDS011;8419;52.358;9.752;2023-09-08T01:31:41;6.85;;;4.47;;
16612;SDS011;8419;52.358;9.752;2023-09-08T01:34:27;4.53;;;4.03;;
16612;SDS011;8419;52.358;9.752;2023-09-08T01:37:12;5.03;;;4.43;;
16612;SDS011;8419;52.358;9.752;2023-09-08T01:39:58;6.35;;;4.60;;
16612;SDS011;8419;52.358;9.752;2023-09-08T01:42:44;6.12;;;4.70;;
16612;SDS011;8419;52.358;9.752;2023-09-08T01:45:30;8.02;;;5.05;;
16612;SDS011;8419;52.358;9.752;2023-09-08T01:48:15;5.25;;;4.70;;
16612;SDS011;8419;52.358;9.752;2023-09-08T01:51:01;4.87;;;4.05;;
16612;SDS011;8419;52.358;9.752;2023-09-08T01:53:47;6.85;;;4.45;;
16612;SDS011;8419;52.358;9.752;2023-09-08T01:56:32;7.35;;;4.80;;
16612;SDS011;8419;52.358;9.752;2023-09-08T01:59:18;7.20;;;4.68;;
16612;SDS011;8419;52.358;9.752;2023-09-08T02:02:04;6.28;;;4.32;;
16612;SDS011;8419;52.358;9.752;2023-09-08T02:04:50;6.30;;;4.32;;
16612;SDS011;8419;52.358;9.752;2023-09-08T02:07:36;6.93;;;4.50;;
16612;SDS011;8419;52.358;9.752;2023-09-08T02:10:21;6.37;;;4.85;;
16612;SDS011;8419;52.358;9.752;2023-09-08T02:13:07;5.97;;;4.55;;
16612;SDS011;8419;52.358;9.752;2023-09-08T02:15:52;7.18;;;4.80;;
16612;SDS011;8419;52.358;9.752;2023-09-08T02:18:38;6.12;;;4.72;;
16612;SDS011;8419;52.358;9.752;2023-09-08T02:21:24;8.13;;;5.25;;
16612;SDS011;8419;52.358;9.752;2023-09-08T02:24:10;8.52;;;5.07;;
16612;SDS011;8419;52.358;9.752;2023-09-08T02:26:55;9.63;;;5.03;;
16612;SDS011;8419;52.358;9.752;2023-09-08T02:29:41;11.70;;;4.78;;
16612;SDS011;8419;52.358;9.752;2023-09-08T02:32:27;5.40;;;4.62;;
16612;SDS011;8419;52.358;9.752;2023-09-08T02:35:13;9.20;;;5.00;;
16612;SDS011;8419;52.358;9.752;2023-09-08T02:37:59;6.50;;;4.80;;
16612;SDS011;8419;52.358;9.752;2023-09-08T02:40:45;7.45;;;5.10;;
16612;SDS011;8419;52.358;9.752;2023-09-08T02:43:30;6.60;;;4.87;;
16612;SDS011;8419;52.358;9.752;2023-09-08T02:46:16;7.95;;;4.82;;
16612;SDS011;8419;52.358;9.752;2023-09-08T02:49:02;9.13;;;5.50;;
16612;SDS011;8419;52.358;9.752;2023-09-08T02:51:48;6.18;;;5.10;;
16612;SDS011;8419;52.358;9.752;2023-09-08T02:54:33;6.62;;;4.65;;
16612;SDS011;8419;52.358;9.752;2023-09-08T02:57:19;8.48;;;5.18;;
16612;SDS011;8419;52.358;9.752;2023-09-08T03:00:06;7.70;;;5.80;;
16612;SDS011;8419;52.358;9.752;2023-09-08T03:02:52;10.55;;;5.78;;
16612;SDS011;8419;52.358;9.752;2023-09-08T03:05:39;6.95;;;5.47;;
16612;SDS011;8419;52.358;9.752;2023-09-08T03:08:24;7.55;;;5.47;;
16612;SDS011;8419;52.358;9.752;2023-09-08T03:11:12;9.02;;;5.70;;
16612;SDS011;8419;52.358;9.752;2023-09-08T03:13:59;7.75;;;5.78;;
16612;SDS011;8419;52.358;9.752;2023-09-08T03:16:44;7.72;;;5.55;;
16612;SDS011;8419;52.358;9.752;2023-09-08T03:19:29;7.18;;;5.55;;
16612;SDS011;8419;52.358;9.752;2023-09-08T03:22:15;8.98;;;6.35;;
16612;SDS011;8419;52.358;9.752;2023-09-08T03:25:00;7.57;;;6.03;;
16612;SDS011;8419;52.358;9.752;2023-09-08T03:27:46;7.87;;;5.43;;
16612;SDS011;8419;52.358;9.752;2023-09-08T03:30:32;7.15;;;5.85;;
16612;SDS011;8419;52.358;9.752;2023-09-08T03:33:18;11.63;;;6.12;;
16612;SDS011;8419;52.358;9.752;2023-09-08T03:36:04;10.23;;;5.95;;
16612;SDS011;8419;52.358;9.752;2023-09-08T03:38:49;10.18;;;6.68;;
16612;SDS011;8419;52.358;9.752;2023-09-08T03:41:35;8.88;;;5.65;;
16612;SDS011;8419;52.358;9.752;2023-09-08T03:44:21;7.45;;;5.57;;
16612;SDS011;8419;52.358;9.752;2023-09-08T03:47:07;7.50;;;5.80;;
16612;SDS011;8419;52.358;9.752;2023-09-08T03:49:53;9.43;;;6.12;;
16612;SDS011;8419;52.358;9.752;2023-09-08T03:52:38;9.43;;;6.65;;
16612;SDS011;8419;52.358;9.752;2023-09-08T03:55:24;8.00;;;5.62;;
16612;SDS011;8419;52.358;9.752;2023-09-08T03:58:09;8.80;;;6.07;;
16612;SDS011;8419;52.358;9.752;2023-09-08T04:00:55;9.60;;;6.35;;
16612;SDS011;8419;52.358;9.752;2023-09-08T04:03:41;9.38;;;5.97;;
16612;SDS011;8419;52.358;9.752;2023-09-08T04:06:26;11.80;;;6.50;;
16612;SDS011;8419;52.358;9.752;2023-09-08T04:09:12;9.30;;;6.10;;
16612;SDS011;8419;52.358;9.752;2023-09-08T04:11:57;9.02;;;6.30;;
16612;SDS011;8419;52.358;9.752;2023-09-08T04:14:43;10.85;;;6.05;;
16612;SDS011;8419;52.358;9.752;2023-09-08T04:17:29;10.05;;;6.10;;
16612;SDS011;8419;52.358;9.752;2023-09-08T04:20:14;9.52;;;5.93;;
16612;SDS011;8419;52.358;9.752;2023-09-08T04:23:01;12.30;;;5.97;;
16612;SDS011;8419;52.358;9.752;2023-09-08T04:25:46;9.73;;;6.43;;
16612;SDS011;8419;52.358;9.752;2023-09-08T04:28:32;9.90;;;6.20;;
16612;SDS011;8419;52.358;9.752;2023-09-08T04:31:18;7.72;;;6.07;;
16612;SDS011;8419;52.358;9.752;2023-09-08T04:34:04;7.90;;;6.53;;
16612;SDS011;8419;52.358;9.752;2023-09-08T04:36:49;8.02;;;6.00;;
16612;SDS011;8419;52.358;9.752;2023-09-08T04:39:35;10.00;;;6.53;;
16612;SDS011;8419;52.358;9.752;2023-09-08T04:42:21;7.37;;;5.82;;
16612;SDS011;8419;52.358;9.752;2023-09-08T04:45:08;7.60;;;6.00;;
16612;SDS011;8419;52.358;9.752;2023-09-08T04:47:54;8.60;;;6.18;;
16612;SDS011;8419;52.358;9.752;2023-09-08T04:50:40;8.77;;;6.30;;
16612;SDS011;8419;52.358;9.752;2023-09-08T04:53:25;10.55;;;6.60;;
16612;SDS011;8419;52.358;9.752;2023-09-08T04:56:12;7.60;;;5.85;;
16612;SDS011;8419;52.358;9.752;2023-09-08T04:58:58;8.77;;;6.20;;
16612;SDS011;8419;52.358;9.752;2023-09-08T05:01:45;8.90;;;6.40;;
16612;SDS011;8419;52.358;9.752;2023-09-08T05:04:31;8.55;;;6.30;;
16612;SDS011;8419;52.358;9.752;2023-09-08T05:07:16;8.52;;;6.20;;
16612;SDS011;8419;52.358;9.752;2023-09-08T05:10:05;8.07;;;5.87;;
16612;SDS011;8419;52.358;9.752;2023-09-08T05:12:51;11.68;;;6.15;;
16612;SDS011;8419;52.358;9.752;2023-09-08T05:15:39;6.80;;;6.07;;
16612;SDS011;8419;52.358;9.752;2023-09-08T05:18:27;7.12;;;5.72;;
16612;SDS011;8419;52.358;9.752;2023-09-08T05:21:12;12.15;;;5.97;;
16612;SDS011;8419;52.358;9.752;2023-09-08T05:23:58;8.55;;;5.70;;
16612;SDS011;8419;52.358;9.752;2023-09-08T05:26:44;12.37;;;7.90;;
16612;SDS011;8419;52.358;9.752;2023-09-08T05:29:30;9.40;;;6.40;;
16612;SDS011;8419;52.358;9.752;2023-09-08T05:32:15;8.98;;;5.97;;
16612;SDS011;8419;52.358;9.752;2023-09-08T05:35:01;8.93;;;5.28;;
16612;SDS011;8419;52.358;9.752;2023-09-08T05:37:47;6.97;;;5.50;;
16612;SDS011;8419;52.358;9.752;2023-09-08T05:40:33;12.73;;;6.47;;
16612;SDS011;8419;52.358;9.752;2023-09-08T05:43:19;13.25;;;6.28;;
16612;SDS011;8419;52.358;9.752;2023-09-08T05:46:05;6.45;;;5.75;;
16612;SDS011;8419;52.358;9.752;2023-09-08T05:48:52;8.68;;;5.43;;
16612;SDS011;8419;52.358;9.752;2023-09-08T05:51:37;8.98;;;6.68;;
16612;SDS011;8419;52.358;9.752;2023-09-08T05:54:23;8.98;;;6.37;;
16612;SDS011;8419;52.358;9.752;2023-09-08T05:57:09;10.00;;;6.45;;
16612;SDS011;8419;52.358;9.752;2023-09-08T05:59:54;11.10;;;5.78;;
16612;SDS011;8419;52.358;9.752;2023-09-08T06:02:40;9.35;;;6.62;;
16612;SDS011;8419;52.358;9.752;2023-09-08T06:05:29;7.90;;;6.22;;
16612;SDS011;8419;52.358;9.752;2023-09-08T06:08:14;10.13;;;5.95;;
16612;SDS011;8419;52.358;9.752;2023-09-08T06:11:00;9.15;;;6.55;;
16612;SDS011;8419;52.358;9.752;2023-09-08T06:13:45;9.00;;;6.15;;
16612;SDS011;8419;52.358;9.752;2023-09-08T06:16:31;9.55;;;5.75;;
16612;SDS011;8419;52.358;9.752;2023-09-08T06:19:18;11.60;;;6.30;;
16612;SDS011;8419;52.358;9.752;2023-09-08T06:22:03;10.82;;;6.47;;
16612;SDS011;8419;52.358;9.752;2023-09-08T06:24:49;12.63;;;6.65;;
16612;SDS011;8419;52.358;9.752;2023-09-08T06:27:35;9.98;;;5.93;;
16612;SDS011;8419;52.358;9.752;2023-09-08T06:30:20;10.40;;;6.35;;
16612;SDS011;8419;52.358;9.752;2023-09-08T06:33:07;8.68;;;6.28;;
16612;SDS011;8419;52.358;9.752;2023-09-08T06:35:53;9.57;;;6.47;;
16612;SDS011;8419;52.358;9.752;2023-09-08T06:38:39;8.57;;;6.37;;
16612;SDS011;8419;52.358;9.752;2023-09-08T06:41:24;10.65;;;6.28;;
16612;SDS011;8419;52.358;9.752;2023-09-08T06:44:11;9.15;;;6.62;;
16612;SDS011;8419;52.358;9.752;2023-09-08T06:46:57;11.52;;;6.37;;
16612;SDS011;8419;52.358;9.752;2023-09-08T06:49:43;12.25;;;6.03;;
16612;SDS011;8419;52.358;9.752;2023-09-08T06:52:28;15.20;;;6.05;;
16612;SDS011;8419;52.358;9.752;2023-09-08T06:55:14;10.77;;;5.70;;
16612;SDS011;8419;52.358;9.752;2023-09-08T06:58:01;11.48;;;6.00;;
16612;SDS011;8419;52.358;9.752;2023-09-08T07:00:47;8.98;;;5.35;;
16612;SDS011;8419;52.358;9.752;2023-09-08T07:03:34;10.65;;;5.70;;
16612;SDS011;8419;52.358;9.752;2023-09-08T07:06:21;7.50;;;5.05;;
16612;SDS011;8419;52.358;9.752;2023-09-08T07:09:07;9.77;;;5.87;;
16612;SDS011;8419;52.358;9.752;2023-09-08T07:11:53;6.20;;;5.20;;
16612;SDS011;8419;52.358;9.752;2023-09-08T07:14:38;7.87;;;5.50;;
16612;SDS011;8419;52.358;9.752;2023-09-08T07:17:24;11.05;;;5.85;;
16612;SDS011;8419;52.358;9.752;2023-09-08T07:20:10;11.25;;;5.87;;
16612;SDS011;8419;52.358;9.752;2023-09-08T07:22:56;8.52;;;5.80;;
16612;SDS011;8419;52.358;9.752;2023-09-08T07:25:45;7.32;;;5.47;;
16612;SDS011;8419;52.358;9.752;2023-09-08T07:28:31;10.18;;;5.53;;
16612;SDS011;8419;52.358;9.752;2023-09-08T07:31:17;8.23;;;5.07;;
16612;SDS011;8419;52.358;9.752;2023-09-08T07:34:02;11.30;;;4.82;;
16612;SDS011;8419;52.358;9.752;2023-09-08T07:36:48;9.80;;;5.87;;
16612;SDS011;8419;52.358;9.752;2023-09-08T07:39:33;6.50;;;5.10;;
16612;SDS011;8419;52.358;9.752;2023-09-08T07:42:19;7.03;;;5.50;;
16612;SDS011;8419;52.358;9.752;2023-09-08T07:45:06;8.20;;;4.97;;
16612;SDS011;8419;52.358;9.752;2023-09-08T07:47:54;7.28;;;5.40;;
16612;SDS011;8419;52.358;9.752;2023-09-08T07:50:39;7.87;;;4.68;;
16612;SDS011;8419;52.358;9.752;2023-09-08T07:53:26;8.57;;;4.57;;
16612;SDS011;8419;52.358;9.752;2023-09-08T07:56:12;11.10;;;5.18;;
16612;SDS011;8419;52.358;9.752;2023-09-08T07:58:58;4.70;;;4.10;;
16612;SDS011;8419;52.358;9.752;2023-09-08T08:01:43;8.40;;;5.00;;
16612;SDS011;8419;52.358;9.752;2023-09-08T08:04:29;7.50;;;4.82;;
16612;SDS011;8419;52.358;9.752;2023-09-08T08:07:14;8.77;;;4.78;;
16612;SDS011;8419;52.358;9.752;2023-09-08T08:10:00;7.75;;;4.72;;
16612;SDS011;8419;52.358;9.752;2023-09-08T08:12:46;6.82;;;4.47;;
16612;SDS011;8419;52.358;9.752;2023-09-08T08:15:35;6.90;;;4.18;;
16612;SDS011;8419;52.358;9.752;2023-09-08T08:18:22;7.55;;;3.95;;
16612;SDS011;8419;52.358;9.752;2023-09-08T08:21:07;7.53;;;4.68;;
16612;SDS011;8419;52.358;9.752;2023-09-08T08:23:54;5.25;;;4.40;;
16612;SDS011;8419;52.358;9.752;2023-09-08T08:26:39;7.60;;;4.00;;
16612;SDS011;8419;52.358;9.752;2023-09-08T08:29:24;6.87;;;4.47;;
16612;SDS011;8419;52.358;9.752;2023-09-08T08:32:10;15.45;;;6.30;;
16612;SDS011;8419;52.358;9.752;2023-09-08T08:34:56;11.05;;;5.18;;
16612;SDS011;8419;52.358;9.752;2023-09-08T08:37:42;9.35;;;4.95;;
16612;SDS011;8419;52.358;9.752;2023-09-08T08:40:27;5.35;;;4.05;;
16612;SDS011;8419;52.358;9.752;2023-09-08T08:43:14;8.35;;;5.05;;
16612;SDS011;8419;52.358;9.752;2023-09-08T08:46:00;7.50;;;4.45;;
16612;SDS011;8419;52.358;9.752;2023-09-08T08:48:47;10.60;;;5.18;;
16612;SDS011;8419;52.358;9.752;2023-09-08T08:51:36;4.62;;;3.75;;
16612;SDS011;8419;52.358;9.752;2023-09-08T08:54:25;7.45;;;4.50;;
16612;SDS011;8419;52.358;9.752;2023-09-08T08:57:10;5.97;;;4.30;;
16612;SDS011;8419;52.358;9.752;2023-09-08T08:59:56;5.75;;;4.10;;
16612;SDS011;8419;52.358;9.752;2023-09-08T09:02:42;4.75;;;3.85;;
16612;SDS011;8419;52.358;9.752;2023-09-08T09:05:29;6.30;;;4.20;;
16612;SDS011;8419;52.358;9.752;2023-09-08T09:08:15;5.97;;;4.10;;
16612;SDS011;8419;52.358;9.752;2023-09-08T09:11:01;6.00;;;3.85;;
16612;SDS011;8419;52.358;9.752;2023-09-08T09:13:47;5.78;;;4.00;;
16612;SDS011;8419;52.358;9.752;2023-09-08T09:16:36;5.25;;;3.95;;
16612;SDS011;8419;52.358;9.752;2023-09-08T09:19:26;4.70;;;3.90;;
16612;SDS011;8419;52.358;9.752;2023-09-08T09:22:12;7.00;;;3.97;;
16612;SDS011;8419;52.358;9.752;2023-09-08T09:24:58;3.97;;;3.60;;
16612;SDS011;8419;52.358;9.752;2023-09-08T09:27:49;8.23;;;3.62;;
16612;SDS011;8419;52.358;9.752;2023-09-08T09:30:49;4.90;;;3.83;;
16612;SDS011;8419;52.358;9.752;2023-09-08T09:33:36;4.28;;;3.87;;
16612;SDS011;8419;52.358;9.752;2023-09-08T09:36:22;8.38;;;3.97;;
16612;SDS011;8419;52.358;9.752;2023-09-08T09:39:07;3.97;;;3.58;;
16612;SDS011;8419;52.358;9.752;2023-09-08T09:41:53;6.05;;;3.70;;
16612;SDS011;8419;52.358;9.752;2023-09-08T09:44:40;5.18;;;3.80;;
16612;SDS011;8419;52.358;9.752;2023-09-08T09:47:26;4.62;;;3.90;;
16612;SDS011;8419;52.358;9.752;2023-09-08T09:50:12;5.03;;;3.55;;
16612;SDS011;8419;52.358;9.752;2023-09-08T09:52:59;8.50;;;3.85;;
16612;SDS011;8419;52.358;9.752;2023-09-08T09:55:49;5.32;;;3.42;;
16612;SDS011;8419;52.358;9.752;2023-09-08T09:58:35;6.12;;;3.90;;
16612;SDS011;8419;52.358;9.752;2023-09-08T10:01:24;5.35;;;3.85;;
16612;SDS011;8419;52.358;9.752;2023-09-08T10:04:11;4.75;;;3.58;;
16612;SDS011;8419;52.358;9.752;2023-09-08T10:06:56;5.37;;;3.83;;
16612;SDS011;8419;52.358;9.752;2023-09-08T10:09:42;6.20;;;3.70;;
16612;SDS011;8419;52.358;9.752;2023-09-08T10:12:28;7.72;;;3.45;;
16612;SDS011;8419;52.358;9.752;2023-09-08T10:15:17;4.72;;;3.70;;
16612;SDS011;8419;52.358;9.752;2023-09-08T10:18:05;4.28;;;3.62;;
16612;SDS011;8419;52.358;9.752;2023-09-08T10:20:55;5.70;;;3.80;;
16612;SDS011;8419;52.358;9.752;2023-09-08T10:23:49;4.90;;;3.90;;
16612;SDS011;8419;52.358;9.752;2023-09-08T10:26:39;5.03;;;3.72;;
16612;SDS011;8419;52.358;9.752;2023-09-08T10:29:28;4.87;;;3.45;;
16612;SDS011;8419;52.358;9.752;2023-09-08T10:32:15;5.60;;;3.60;;
16612;SDS011;8419;52.358;9.752;2023-09-08T10:35:03;3.92;;;3.10;;
16612;SDS011;8419;52.358;9.752;2023-09-08T10:37:50;6.32;;;4.22;;
16612;SDS011;8419;52.358;9.752;2023-09-08T10:44:28;3.33;;;2.92;;
16612;SDS011;8419;52.358;9.752;2023-09-08T10:47:18;7.40;;;3.55;;
16612;SDS011;8419;52.358;9.752;2023-09-08T10:50:05;6.00;;;3.72;;
16612;SDS011;8419;52.358;9.752;2023-09-08T10:53:04;6.20;;;3.10;;
16612;SDS011;8419;52.358;9.752;2023-09-08T10:55:52;3.97;;;3.17;;
16612;SDS011;8419;52.358;9.752;2023-09-08T10:58:38;4.65;;;3.30;;
16612;SDS011;8419;52.358;9.752;2023-09-08T11:01:27;4.90;;;3.83;;
16612;SDS011;8419;52.358;9.752;2023-09-08T11:04:15;4.57;;;3.10;;
16612;SDS011;8419;52.358;9.752;2023-09-08T11:07:03;5.20;;;3.42;;
16612;SDS011;8419;52.358;9.752;2023-09-08T11:09:49;3.97;;;3.17;;
16612;SDS011;8419;52.358;9.752;2023-09-08T11:12:34;4.22;;;3.33;;
16612;SDS011;8419;52.358;9.752;2023-09-08T11:15:20;5.40;;;3.30;;
16612;SDS011;8419;52.358;9.752;2023-09-08T11:18:06;7.70;;;3.47;;
16612;SDS011;8419;52.358;9.752;2023-09-08T11:20:52;6.45;;;3.20;;
16612;SDS011;8419;52.358;9.752;2023-09-08T11:23:38;5.32;;;3.67;;
16612;SDS011;8419;52.358;9.752;2023-09-08T11:26:24;5.00;;;3.72;;
16612;SDS011;8419;52.358;9.752;2023-09-08T11:29:10;4.70;;;3.70;;
16612;SDS011;8419;52.358;9.752;2023-09-08T11:31:56;4.37;;;3.37;;
16612;SDS011;8419;52.358;9.752;2023-09-08T11:34:42;4.32;;;3.53;;
16612;SDS011;8419;52.358;9.752;2023-09-08T11:37:28;4.30;;;3.00;;
16612;SDS011;8419;52.358;9.752;2023-09-08T11:40:13;4.00;;;3.60;;
16612;SDS011;8419;52.358;9.752;2023-09-08T11:42:59;5.32;;;3.42;;
16612;SDS011;8419;52.358;9.752;2023-09-08T11:45:45;7.93;;;3.08;;
16612;SDS011;8419;52.358;9.752;2023-09-08T11:48:31;3.78;;;3.45;;
16612;SDS011;8419;52.358;9.752;2023-09-08T11:51:17;7.65;;;2.65;;
16612;SDS011;8419;52.358;9.752;2023-09-08T11:54:07;4.68;;;2.80;;
16612;SDS011;8419;52.358;9.752;2023-09-08T11:56:53;5.70;;;2.40;;
16612;SDS011;8419;52.358;9.752;2023-09-08T11:59:39;3.37;;;2.65;;
16612;SDS011;8419;52.358;9.752;2023-09-08T12:02:26;3.45;;;2.95;;
16612;SDS011;8419;52.358;9.752;2023-09-08T12:05:12;2.40;;;2.20;;
16612;SDS011;8419;52.358;9.752;2023-09-08T12:07:58;4.35;;;2.72;;
16612;SDS011;8419;52.358;9.752;2023-09-08T12:10:49;3.35;;;2.78;;
16612;SDS011;8419;52.358;9.752;2023-09-08T12:13:37;3.70;;;2.30;;
16612;SDS011;8419;52.358;9.752;2023-09-08T12:16:23;4.00;;;2.40;;
16612;SDS011;8419;52.358;9.752;2023-09-08T12:19:27;4.22;;;2.42;;
16612;SDS011;8419;52.358;9.752;2023-09-08T12:22:14;2.70;;;2.50;;
16612;SDS011;8419;52.358;9.752;2023-09-08T12:25:02;3.70;;;2.53;;
16612;SDS011;8419;52.358;9.752;2023-09-08T12:27:53;4.97;;;2.55;;
16612;SDS011;8419;52.358;9.752;2023-09-08T12:30:39;4.25;;;2.53;;
16612;SDS011;8419;52.358;9.752;2023-09-08T12:33:26;3.55;;;2.37;;
16612;SDS011;8419;52.358;9.752;2023-09-08T12:36:14;2.78;;;2.22;;
16612;SDS011;8419;52.358;9.752;2023-09-08T12:39:03;2.78;;;2.37;;
16612;SDS011;8419;52.358;9.752;2023-09-08T12:41:48;2.25;;;2.03;;
16612;SDS011;8419;52.358;9.752;2023-09-08T12:44:35;3.25;;;2.30;;
16612;SDS011;8419;52.358;9.752;2023-09-08T12:47:21;3.83;;;2.28;;
16612;SDS011;8419;52.358;9.752;2023-09-08T12:50:08;3.15;;;1.90;;
16612;SDS011;8419;52.358;9.752;2023-09-08T12:52:57;2.65;;;2.05;;
16612;SDS011;8419;52.358;9.752;2023-09-08T12:55:43;6.40;;;2.20;;
16612;SDS011;8419;52.358;9.752;2023-09-08T12:58:28;2.03;;;1.85;;
16612;SDS011;8419;52.358;9.752;2023-09-08T13:01:15;5.60;;;2.25;;
16612;SDS011;8419;52.358;9.752;2023-09-08T13:04:01;3.33;;;2.20;;
16612;SDS011;8419;52.358;9.752;2023-09-08T13:06:47;3.22;;;2.20;;
16612;SDS011;8419;52.358;9.752;2023-09-08T13:09:35;4.32;;;2.08;;
16612;SDS011;8419;52.358;9.752;2023-09-08T13:15:27;5.57;;;2.15;;
16612;SDS011;8419;52.358;9.752;2023-09-08T13:18:13;2.05;;;1.85;;
16612;SDS011;8419;52.358;9.752;2023-09-08T13:20:59;2.47;;;1.83;;
16612;SDS011;8419;52.358;9.752;2023-09-08T13:23:45;3.58;;;1.87;;
16612;SDS011;8419;52.358;9.752;2023-09-08T13:26:31;2.70;;;1.67;;
16612;SDS011;8419;52.358;9.752;2023-09-08T13:29:17;4.40;;;2.10;;
16612;SDS011;8419;52.358;9.752;2023-09-08T13:32:04;2.72;;;1.80;;
16612;SDS011;8419;52.358;9.752;2023-09-08T13:34:52;2.00;;;1.80;;
16612;SDS011;8419;52.358;9.752;2023-09-08T13:37:37;2.37;;;1.67;;
16612;SDS011;8419;52.358;9.752;2023-09-08T13:40:23;1.98;;;1.20;;
16612;SDS011;8419;52.358;9.752;2023-09-08T13:43:08;1.77;;;1.50;;
16612;SDS011;8419;52.358;9.752;2023-09-08T13:45:55;2.55;;;1.30;;
16612;SDS011;8419;52.358;9.752;2023-09-08T13:48:41;1.67;;;1.37;;
16612;SDS011;8419;52.358;9.752;2023-09-08T13:51:28;1.40;;;1.30;;
16612;SDS011;8419;52.358;9.752;2023-09-08T13:54:13;3.12;;;1.37;;
16612;SDS011;8419;52.358;9.752;2023-09-08T13:56:59;1.80;;;1.30;;
16612;SDS011;8419;52.358;9.752;2023-09-08T13:59:46;2.37;;;1.80;;
16612;SDS011;8419;52.358;9.752;2023-09-08T14:02:32;2.20;;;2.00;;
16612;SDS011;8419;52.358;9.752;2023-09-08T14:05:17;2.75;;;1.70;;
16612;SDS011;8419;52.358;9.752;2023-09-08T14:08:04;3.40;;;1.70;;
16612;SDS011;8419;52.358;9.752;2023-09-08T14:10:50;1.50;;;1.33;;
16612;SDS011;8419;52.358;9.752;2023-09-08T14:13:35;1.42;;;1.33;;
16612;SDS011;8419;52.358;9.752;2023-09-08T14:16:21;1.92;;;1.70;;
16612;SDS011;8419;52.358;9.752;2023-09-08T14:19:08;2.08;;;1.80;;
16612;SDS011;8419;52.358;9.752;2023-09-08T14:21:53;2.70;;;1.98;;
16612;SDS011;8419;52.358;9.752;2023-09-08T14:24:38;3.28;;;2.25;;
16612;SDS011;8419;52.358;9.752;2023-09-08T14:27:26;2.17;;;1.80;;
16612;SDS011;8419;52.358;9.752;2023-09-08T14:30:12;1.60;;;1.50;;
16612;SDS011;8419;52.358;9.752;2023-09-08T14:32:58;1.67;;;1.58;;
16612;SDS011;8419;52.358;9.752;2023-09-08T14:35:44;2.80;;;1.70;;
16612;SDS011;8419;52.358;9.752;2023-09-08T14:38:30;2.25;;;1.85;;
16612;SDS011;8419;52.358;9.752;2023-09-08T14:41:16;2.67;;;1.90;;
16612;SDS011;8419;52.358;9.752;2023-09-08T14:44:01;4.00;;;2.17;;
16612;SDS011;8419;52.358;9.752;2023-09-08T14:46:47;2.62;;;1.90;;
16612;SDS011;8419;52.358;9.752;2023-09-08T14:49:32;2.28;;;1.70;;
16612;SDS011;8419;52.358;9.752;2023-09-08T14:52:19;1.90;;;1.60;;
16612;SDS011;8419;52.358;9.752;2023-09-08T14:55:05;3.87;;;2.40;;
16612;SDS011;8419;52.358;9.752;2023-09-08T14:57:52;4.90;;;2.22;;
16612;SDS011;8419;52.358;9.752;2023-09-08T15:00:37;2.55;;;2.03;;
16612;SDS011;8419;52.358;9.752;2023-09-08T15:03:23;2.40;;;2.17;;
16612;SDS011;8419;52.358;9.752;2023-09-08T15:06:09;2.12;;;1.92;;
16612;SDS011;8419;52.358;9.752;2023-09-08T15:08:54;2.72;;;2.30;;
16612;SDS011;8419;52.358;9.752;2023-09-08T15:11:40;3.10;;;2.05;;
16612;SDS011;8419;52.358;9.752;2023-09-08T15:14:25;2.80;;;2.28;;
16612;SDS011;8419;52.358;9.752;2023-09-08T15:17:11;2.45;;;2.25;;
16612;SDS011;8419;52.358;9.752;2023-09-08T15:19:57;3.15;;;2.30;;
16612;SDS011;8419;52.358;9.752;2023-09-08T15:22:44;4.03;;;2.20;;
16612;SDS011;8419;52.358;9.752;2023-09-08T15:25:30;2.70;;;2.17;;
16612;SDS011;8419;52.358;9.752;2023-09-08T15:28:18;3.87;;;2.12;;
16612;SDS011;8419;52.358;9.752;2023-09-08T15:31:03;4.37;;;2.20;;
16612;SDS011;8419;52.358;9.752;2023-09-08T15:33:48;4.45;;;2.47;;
16612;SDS011;8419;52.358;9.752;2023-09-08T15:36:36;2.35;;;2.10;;
16612;SDS011;8419;52.358;9.752;2023-09-08T15:39:22;3.42;;;3.10;;
16612;SDS011;8419;52.358;9.752;2023-09-08T15:42:07;7.43;;;3.17;;
16612;SDS011;8419;52.358;9.752;2023-09-08T15:44:53;7.72;;;2.62;;
16612;SDS011;8419;52.358;9.752;2023-09-08T15:47:39;4.20;;;2.65;;
16612;SDS011;8419;52.358;9.752;2023-09-08T15:50:24;3.87;;;3.20;;
16612;SDS011;8419;52.358;9.752;2023-09-08T15:53:10;5.00;;;2.75;;
16612;SDS011;8419;52.358;9.752;2023-09-08T15:55:56;5.55;;;2.80;;
16612;SDS011;8419;52.358;9.752;2023-09-08T15:58:42;4.45;;;3.05;;
16612;SDS011;8419;52.358;9.752;2023-09-08T16:01:28;6.15;;;2.95;;
16612;SDS011;8419;52.358;9.752;2023-09-08T16:04:13;3.60;;;2.72;;
16612;SDS011;8419;52.358;9.752;2023-09-08T16:07:00;4.82;;;3.00;;
16612;SDS011;8419;52.358;9.752;2023-09-08T16:09:46;3.90;;;3.05;;
16612;SDS011;8419;52.358;9.752;2023-09-08T16:12:31;6.15;;;2.78;;
16612;SDS011;8419;52.358;9.752;2023-09-08T16:15:17;4.60;;;3.28;;
16612;SDS011;8419;52.358;9.752;2023-09-08T16:18:03;6.90;;;2.95;;
16612;SDS011;8419;52.358;9.752;2023-09-08T16:20:49;4.53;;;2.60;;
16612;SDS011;8419;52.358;9.752;2023-09-08T16:23:34;4.72;;;3.50;;
16612;SDS011;8419;52.358;9.752;2023-09-08T16:26:19;4.70;;;2.95;;
16612;SDS011;8419;52.358;9.752;2023-09-08T16:29:05;3.10;;;2.80;;
16612;SDS011;8419;52.358;9.752;2023-09-08T16:31:50;4.50;;;3.08;;
16612;SDS011;8419;52.358;9.752;2023-09-08T16:34:36;3.78;;;3.10;;
16612;SDS011;8419;52.358;9.752;2023-09-08T16:37:21;4.05;;;3.30;;
16612;SDS011;8419;52.358;9.752;2023-09-08T16:40:07;6.28;;;3.20;;
16612;SDS011;8419;52.358;9.752;2023-09-08T16:42:54;5.93;;;3.22;;
16612;SDS011;8419;52.358;9.752;2023-09-08T16:45:40;3.97;;;3.17;;
16612;SDS011;8419;52.358;9.752;2023-09-08T16:48:25;5.93;;;3.70;;
16612;SDS011;8419;52.358;9.752;2023-09-08T16:51:11;7.28;;;3.50;;
16612;SDS011;8419;52.358;9.752;2023-09-08T16:53:56;4.50;;;3.10;;
16612;SDS011;8419;52.358;9.752;2023-09-08T16:56:42;3.90;;;3.33;;
16612;SDS011;8419;52.358;9.752;2023-09-08T16:59:31;6.10;;;3.65;;
16612;SDS011;8419;52.358;9.752;2023-09-08T17:02:19;4.35;;;3.30;;